Latest Coastal Weather Observations for Warrnambool

IDV60701

Issued at 6:31 pm EST Wednesday 28 September 2016 (issued every 10 minutes, with the page automatically refreshed every 10 minutes)

About coastal observations | Map of coastal stations | Coastal observations for VIC | Marine services | Other Formats
Station Details ID: 090186 Name: WARRNAMBOOL AIRPORT NDB Lat: -38.29 Lon: 142.45 Height: 70.8 m
Data from the previous 72 hours. | See also: Recent months at Warrnambool
Date/Time
EST
Temp
°C
Wind Pressure Rain since
9am
mm
Weather Cloud Vis
km
Sea
Height
m
Swell
Dir  Spd
kts
Gust
kts
hPa Trend Height
m
Period
s
Dir
28/06:30pm 14.3 NNE 16 23 996.4 - 0.0 - Cloudy 10 - - - -
28/06:00pm 14.3 NE 15 23 996.5 - 0.0 - Cloudy 10 - - - -
28/05:30pm 14.7 NNE 17 23 997.2 - 0.0 - - 10 - - - -
28/05:00pm 15.0 NE 17 24 997.1 - 0.0 - - 10 - - - -
28/04:30pm 15.0 NNE 18 23 997.9 - 0.0 - - 10 - - - -
28/04:00pm 15.4 NNE 18 24 998.4 - 0.0 - - 10 - - - -
28/03:53pm 15.5 NNE 18 28 998.7 - 0.0 - - 10 - - - -
28/03:30pm 15.8 NNE 20 29 999.3 - 0.0 - - 10 - - - -
28/03:06pm 16.3 NNE 17 27 999.6 - 0.0 - Partly cloudy 10 - - - -
28/03:00pm 16.4 NNE 18 25 999.7 - 0.0 - Cloudy 10 - - - -
28/02:30pm 16.3 NNE 21 29 1000.5 - 0.0 - Partly cloudy 10 - - - -
28/02:07pm 16.7 NNE 19 29 1000.8 - 0.0 - Partly cloudy 10 - - - -
28/02:00pm 16.3 NNE 20 28 1001.0 - 0.0 - Partly cloudy 10 - - - -
28/01:49pm 16.5 NNE 20 30 1001.3 - 0.0 - Partly cloudy 10 - - - -
28/01:30pm 17.0 NNE 20 29 1001.9 - 0.0 - Partly cloudy 10 - - - -
28/01:00pm 16.5 NNE 21 31 1003.4 - 0.0 - Partly cloudy 10 - - - -
28/12:57pm 16.6 NNE 21 31 1003.4 - 0.0 - Partly cloudy 10 - - - -
28/12:30pm 16.5 NNE 20 27 1003.8 - 0.0 - - 10 - - - -
28/12:00pm 16.6 NNE 17 22 1005.3 - 0.0 - Mostly clear 10 - - - -
28/11:30am 16.3 NNE 15 20 1006.4 - 0.0 - Partly cloudy 10 - - - -
28/11:00am 15.9 NNE 15 24 1007.2 - 0.0 - Partly cloudy 10 - - - -
28/10:30am 15.3 NNE 16 21 1008.2 - 0.0 - - 10 - - - -
28/10:00am 15.0 NNE 15 19 1009.0 - 0.0 - - 10 - - - -
28/09:30am 14.2 NNE 13 16 1009.5 - 0.0 - - 10 - - - -
28/09:00am 13.3 NNE 10 15 1009.8 - 0.0 - Mostly clear 10 - - - -
28/08:30am 11.4 NNE 9 11 1010.2 - 0.0 - Cloudy 10 - - - -
28/08:00am 10.9 N 9 11 1010.6 - 0.0 - Partly cloudy 10 - - - -
28/07:30am 9.2 NNE 9 12 1010.9 - 0.0 - Partly cloudy 10 - - - -
28/07:00am 9.2 N 9 11 1011.1 - 0.0 - Cloudy 10 - - - -
28/06:30am 9.1 N 9 11 1011.2 - 0.0 - Cloudy 10 - - - -
28/06:00am 9.4 N 7 9 1010.9 - 0.0 - Cloudy 10 - - - -
28/05:30am 9.2 N 7 8 1011.0 - 0.0 - Cloudy 10 - - - -
28/05:00am 9.1 N 7 9 1011.0 - 0.0 - Cloudy 10 - - - -
28/04:30am 9.0 N 7 9 1011.0 - 0.0 - Partly cloudy 10 - - - -
28/04:00am 9.4 NNW 7 9 1011.0 - 0.0 - Partly cloudy 10 - - - -
28/03:30am 9.1 N 8 11 1011.1 - 0.0 - Partly cloudy 10 - - - -
28/03:00am 9.1 NNW 9 11 1011.2 - 0.0 - Cloudy 10 - - - -
28/02:30am 8.6 NNW 7 8 1011.3 - 0.0 - Partly cloudy 10 - - - -
28/02:00am 9.3 NNW 8 9 1011.5 - 0.0 - Partly cloudy 10 - - - -
28/01:30am 9.4 NNW 9 12 1011.7 - 0.0 - Partly cloudy 10 - - - -
28/01:00am 8.4 N 8 9 1011.8 - 0.0 - Partly cloudy 10 - - - -
28/12:30am 8.6 N 9 11 1011.8 - 0.0 - Partly cloudy 10 - - - -
28/12:00am 9.5 NNW 9 12 1011.9 - 0.0 - Partly cloudy 10 - - - -
 
Date/Time
EST
Temp
°C
Wind Pressure Rain since
9am
mm
Weather Cloud Vis
km
Sea
Height
m
Swell
Dir  Spd
kts
Gust
kts
hPa Trend Height
m
Period
s
Dir
27/11:30pm 9.4 N 10 13 1012.0 - 0.0 - Partly cloudy 10 - - - -
27/11:00pm 9.0 N 10 13 1012.1 - 0.0 - Partly cloudy 10 - - - -
27/10:30pm 8.8 N 9 11 1012.1 - 0.0 - Partly cloudy 10 - - - -
27/10:00pm 9.1 N 8 9 1012.1 - 0.0 - Partly cloudy 10 - - - -
27/09:30pm 10.6 NNW 9 11 1012.1 - 0.0 - Partly cloudy 10 - - - -
27/09:00pm 9.1 N 7 9 1012.2 - 0.0 - Partly cloudy 10 - - - -
27/08:30pm 9.2 N 7 8 1012.3 - 0.0 - Partly cloudy 10 - - - -
27/08:00pm 10.8 N 6 8 1012.2 - 0.0 - Partly cloudy 10 - - - -
27/07:30pm 9.9 NNW 7 8 1012.3 - 0.0 - Partly cloudy 10 - - - -
27/07:00pm 10.8 NW 7 9 1012.2 - 0.0 - Partly cloudy 10 - - - -
27/06:30pm 10.5 NNW 6 7 1012.1 - 0.0 - Partly cloudy 10 - - - -
27/06:00pm 12.7 NNW 6 8 1011.8 - 0.0 - Mostly cloudy 10 - - - -
27/05:30pm 13.4 NW 6 9 1011.9 - 0.0 - Cloudy 10 - - - -
27/05:00pm 13.8 NW 8 12 1011.8 - 0.0 - Partly cloudy 10 - - - -
27/04:30pm 14.0 WNW 5 6 1011.8 - 0.0 - Partly cloudy 10 - - - -
27/04:00pm 13.6 W 7 9 1011.8 - 0.0 - Partly cloudy 10 - - - -
27/03:30pm 14.1 W 8 11 1011.6 - 0.0 - Partly cloudy 10 - - - -
27/03:00pm 14.4 W 10 12 1011.6 - 0.0 - Mostly cloudy 10 - - - -
27/02:30pm 14.4 W 11 15 1011.6 - 0.0 - Partly cloudy 10 - - - -
27/02:00pm 15.5 W 10 14 1011.8 - 0.0 - Partly cloudy 10 - - - -
27/01:30pm 15.0 W 10 14 1012.0 - 0.0 - Partly cloudy 10 - - - -
27/01:00pm 14.5 W 11 16 1012.3 - 0.0 - Partly cloudy 10 - - - -
27/12:30pm 13.8 W 15 21 1012.6 - 0.0 - Partly cloudy 10 - - - -
27/12:00pm 14.1 W 15 20 1012.6 - 0.0 - Mostly clear 10 - - - -
27/11:30am 13.4 W 16 22 1012.6 - 0.0 - Partly cloudy 10 - - - -
27/11:00am 13.4 W 16 19 1012.6 - 0.0 - Partly cloudy 10 - - - -
27/10:30am 12.3 W 14 20 1012.7 - 0.0 - Partly cloudy 10 - - - -
27/10:00am 12.6 WSW 16 23 1012.5 - 0.0 - Partly cloudy 10 - - - -
27/09:30am 11.5 WSW 15 21 1012.4 - 0.0 - Cloudy 10 - - - -
27/09:00am 11.9 W 10 16 1012.1 - 7.2 - Partly cloudy 10 - - - -
27/08:30am 10.0 WNW 10 14 1011.7 - 7.2 - Cloudy 10 - - - -
27/08:00am 10.0 W 10 15 1011.2 - 7.2 - Cloudy 10 - - - -
27/07:30am 9.6 W 15 22 1010.8 - 7.2 - Partly cloudy 10 - - - -
27/07:15am 9.6 W 16 25 1010.7 - 7.2 - Partly cloudy 10 - - - -
27/07:14am 9.6 W 16 25 1010.7 - 7.2 - Partly cloudy 10 - - - -
27/07:00am 9.3 WSW 17 23 1010.5 - 7.2 - Partly cloudy 4 - - - -
27/06:35am 9.2 W 18 26 1010.3 - 6.6 - Partly cloudy 5 - - - -
27/06:30am 9.2 W 16 24 1010.2 - 6.2 - Partly cloudy 10 - - - -
27/06:25am 9.3 W 15 23 1010.0 - 5.8 - Cloudy 10 - - - -
27/06:09am 9.0 WNW 12 21 1009.7 - 5.8 - Partly cloudy 5 - - - -
27/06:00am 8.5 WNW 10 14 1009.6 - 5.4 Showers Cloudy 10 - - - -
27/05:59am 8.5 WNW 10 14 1009.6 - 5.4 - Partly cloudy 9 - - - -
27/05:32am 8.1 NW 12 15 1009.3 - 5.2 - Partly cloudy 10 - - - -
27/05:30am 8.0 NW 12 15 1009.3 - 5.2 - Partly cloudy 10 - - - -
27/05:00am 7.3 NW 10 14 1009.1 - 5.2 - Partly cloudy 10 - - - -
27/04:30am 7.3 NW 12 15 1009.1 - 5.2 - Cloudy 10 - - - -
27/04:00am 6.8 NW 12 16 1009.0 - 5.2 - Partly cloudy 10 - - - -
27/03:52am 6.4 NNW 11 16 1008.9 - 5.2 - Partly cloudy 10 - - - -
27/03:30am 5.7 NNW 9 13 1008.8 - 5.2 - - 10 - - - -
27/03:00am 5.5 NNW 9 11 1008.8 - 5.2 - Mostly clear 10 - - - -
27/02:30am 5.5 NNW 10 12 1009.0 - 5.2 - Partly cloudy 10 - - - -
27/02:00am 5.3 NNW 10 13 1009.0 - 5.2 - - 10 - - - -
27/01:30am 5.3 NNW 8 11 1009.3 - 5.2 - - 10 - - - -
27/01:00am 5.4 NNW 8 11 1009.4 - 5.2 - Partly cloudy 10 - - - -
27/12:30am 5.8 NNW 9 11 1009.5 - 5.2 - - 10 - - - -
27/12:00am 5.5 NNW 9 12 1009.7 - 5.2 - - 10 - - - -
 
Date/Time
EST
Temp
°C
Wind Pressure Rain since
9am
mm
Weather Cloud Vis
km
Sea
Height
m
Swell
Dir  Spd
kts
Gust
kts
hPa Trend Height
m
Period
s
Dir
26/11:30pm 5.8 NNW 10 12 1009.8 - 5.2 - - 10 - - - -
26/11:00pm 6.6 NNW 11 13 1009.8 - 5.2 - Partly cloudy 10 - - - -
26/10:30pm 6.2 NNW 9 11 1009.9 - 5.2 - - 10 - - - -
26/10:00pm 6.2 NNW 10 12 1009.8 - 5.2 - - 10 - - - -
26/09:30pm 6.7 NNW 10 13 1009.9 - 5.2 - - 10 - - - -
26/09:00pm 6.2 NNW 7 8 1009.7 - 5.2 - Mostly clear 10 - - - -
26/08:30pm 7.5 NNW 7 9 1009.5 - 5.2 - Partly cloudy 10 - - - -
26/08:00pm 7.9 NNW 7 9 1009.2 - 5.2 - Partly cloudy 10 - - - -
26/07:30pm 8.1 N 9 13 1008.9 - 5.2 - Partly cloudy 10 - - - -
26/07:00pm 7.2 NNW 9 11 1008.8 - 5.2 - - 10 - - - -
26/06:30pm 7.9 NNW 9 13 1008.7 - 5.2 - - 10 - - - -
26/06:00pm 9.1 NNW 11 16 1008.4 - 5.2 - Cloudy 10 - - - -
26/05:30pm 8.2 NNW 10 14 1008.5 - 5.2 - Partly cloudy 10 - - - -
26/05:00pm 7.6 NNW 10 16 1007.9 - 5.2 - Partly cloudy 10 - - - -
26/04:30pm 7.3 WNW 17 22 1008.9 - 4.4 - Partly cloudy 10 - - - -
26/04:25pm 7.3 WNW 19 26 1008.9 - 4.4 - Partly cloudy 10 - - - -
26/04:10pm 6.9 WNW 23 35 1008.9 - 3.4 - Partly cloudy 5 - - - -
26/04:01pm 9.4 WNW 15 27 1008.6 - 2.4 - Partly cloudy 10 - - - -
26/04:00pm 9.7 WNW 14 25 1008.6 - 2.2 - Partly cloudy 10 - - - -
26/03:50pm 10.0 WNW 9 13 1007.9 - 2.0 - Partly cloudy 10 - - - -
26/03:36pm 10.2 WNW 11 16 1007.9 - 1.4 - Partly cloudy 5 - - - -
26/03:30pm 10.7 W 13 19 1007.7 - 0.6 - Partly cloudy 10 - - - -
26/03:00pm 13.6 NNW 13 17 1007.3 - 0.2 Showers Mostly cloudy 10 - - - -
26/02:30pm 14.4 NNW 14 21 1007.5 - 0.2 - Partly cloudy 10 - - - -
26/02:00pm 15.4 NNW 18 24 1007.7 - 0.2 - Partly cloudy 10 - - - -
26/01:30pm 15.1 N 13 20 1008.3 - 0.2 - Partly cloudy 10 - - - -
26/01:00pm 15.1 NNW 15 19 1008.8 - 0.2 - Partly cloudy 10 - - - -
26/12:30pm 14.9 NNW 15 22 1009.3 - 0.2 - Partly cloudy 10 - - - -
26/12:00pm 15.0 NNW 14 21 1009.8 - 0.0 - Cloudy 10 - - - -
26/11:30am 14.9 NNW 15 20 1010.2 - 0.0 - Partly cloudy 10 - - - -
26/11:00am 14.1 NNW 16 21 1010.7 - 0.0 - Partly cloudy 10 - - - -
26/10:30am 14.5 NNW 15 20 1011.1 - 0.0 - Partly cloudy 10 - - - -
26/10:00am 12.8 NNW 14 18 1011.4 - 0.0 - Partly cloudy 10 - - - -
26/09:30am 13.0 N 13 16 1011.4 - 0.0 - - 10 - - - -
26/09:00am 12.1 N 11 16 1011.5 - 0.2 - Partly cloudy 10 - - - -
26/08:30am 10.5 N 10 13 1011.6 - 0.2 - - 10 - - - -
26/08:00am 9.3 N 10 14 1011.8 - 0.2 - - 10 - - - -
26/07:30am 8.0 N 9 11 1011.8 - 0.2 - Partly cloudy 10 - - - -
26/07:00am 7.1 N 9 10 1012.0 - 0.2 - Partly cloudy 10 - - - -
26/06:30am 4.9 N 8 9 1012.1 - 0.2 - Partly cloudy 10 - - - -
26/06:00am 5.1 N 9 10 1012.1 - 0.2 - - 10 - - - -
26/05:30am 5.3 N 8 10 1011.9 - 0.2 - Partly cloudy 10 - - - -
26/05:00am 5.1 N 8 9 1011.9 - 0.2 - - 10 - - - -
26/04:30am 5.5 N 7 9 1011.9 - 0.2 - - 10 - - - -
26/04:00am 5.6 N 8 9 1011.9 - 0.2 - - 10 - - - -
26/03:30am 6.0 N 8 9 1012.0 - 0.2 - - 10 - - - -
26/03:00am 6.2 N 8 9 1012.3 - 0.2 - Cloudy 10 - - - -
26/02:30am 6.1 N 8 9 1012.6 - 0.2 - Partly cloudy 10 - - - -
26/02:00am 6.2 N 7 9 1012.8 - 0.2 - - 10 - - - -
26/01:30am 7.0 N 8 9 1013.1 - 0.2 - Partly cloudy 10 - - - -
26/01:00am 6.9 N 6 7 1013.4 - 0.2 - Partly cloudy 10 - - - -
26/12:30am 6.6 N 7 8 1013.6 - 0.2 - Partly cloudy 10 - - - -
26/12:00am 6.8 N 7 8 1013.5 - 0.2 - Cloudy 10 - - - -
 
Date/Time
EST
Temp
°C
Wind Pressure Rain since
9am
mm
Weather Cloud Vis
km
Sea
Height
m
Swell
Dir  Spd
kts
Gust
kts
hPa Trend Height
m
Period
s
Dir
25/11:30pm 6.3 N 6 7 1013.7 - 0.2 - - 10 - - - -
25/11:00pm 6.6 N 5 7 1013.8 - 0.2 - Partly cloudy 10 - - - -
25/10:30pm 7.0 N 6 7 1014.1 - 0.2 - Partly cloudy 10 - - - -
25/10:00pm 8.1 N 5 7 1014.1 - 0.2 - Partly cloudy 10 - - - -
25/09:30pm 7.7 N 4 6 1014.2 - 0.2 - Partly cloudy 10 - - - -
25/09:00pm 7.1 CALM 0 3 1014.2 - 0.2 - Cloudy 10 - - - -
25/08:30pm 6.5 NNW 1 4 1014.2 - 0.2 - Partly cloudy 10 - - - -
25/08:00pm 7.3 CALM 0 0 1013.8 - 0.2 - - 10 - - - -
25/07:30pm 8.4 CALM 0 0 1013.5 - 0.2 - - 10 - - - -
25/07:00pm 8.9 WSW 1 3 1013.2 - 0.2 - - 10 - - - -

Other Formats:

Comma delimited format used in spreadsheet applications
http://www.bom.gov.au/fwo/IDV60701/IDV60701.94837.axf

JavaScript Object Notation format (JSON) in row-major order
http://www.bom.gov.au/fwo/IDV60701/IDV60701.94837.json